sensor_id;sensor_type;location;lat;lon;timestamp;temperature;humidity
63283;DHT22;49407;51.388;0.048;2022-08-14T00:01:47;21.60;61.00
63283;DHT22;49407;51.388;0.048;2022-08-14T00:04:22;21.60;61.20
63283;DHT22;49407;51.388;0.048;2022-08-14T00:07:02;21.50;61.30
63283;DHT22;49407;51.388;0.048;2022-08-14T00:09:34;21.50;61.50
63283;DHT22;49407;51.388;0.048;2022-08-14T00:12:21;21.40;61.70
63283;DHT22;49407;51.388;0.048;2022-08-14T00:14:51;21.40;61.90
63283;DHT22;49407;51.388;0.048;2022-08-14T00:17:21;21.40;62.10
63283;DHT22;49407;51.388;0.048;2022-08-14T00:19:48;21.40;62.50
63283;DHT22;49407;51.388;0.048;2022-08-14T00:22:18;21.30;62.90
63283;DHT22;49407;51.388;0.048;2022-08-14T00:25:07;21.30;63.20
63283;DHT22;49407;51.388;0.048;2022-08-14T00:27:36;21.30;63.40
63283;DHT22;49407;51.388;0.048;2022-08-14T00:30:09;21.30;63.90
63283;DHT22;49407;51.388;0.048;2022-08-14T00:32:40;21.30;64.30
63283;DHT22;49407;51.388;0.048;2022-08-14T00:35:27;21.30;64.50
63283;DHT22;49407;51.388;0.048;2022-08-14T00:38:16;21.30;64.70
63283;DHT22;49407;51.388;0.048;2022-08-14T00:40:45;21.20;65.00
63283;DHT22;49407;51.388;0.048;2022-08-14T00:43:15;21.20;65.30
63283;DHT22;49407;51.388;0.048;2022-08-14T00:45:43;21.20;65.50
63283;DHT22;49407;51.388;0.048;2022-08-14T00:48:19;21.10;65.90
63283;DHT22;49407;51.388;0.048;2022-08-14T00:51:04;21.10;66.10
63283;DHT22;49407;51.388;0.048;2022-08-14T00:53:31;21.10;66.40
63283;DHT22;49407;51.388;0.048;2022-08-14T00:55:58;21.00;66.70
63283;DHT22;49407;51.388;0.048;2022-08-14T00:58:45;21.00;67.10
63283;DHT22;49407;51.388;0.048;2022-08-14T01:01:14;20.90;68.00
63283;DHT22;49407;51.388;0.048;2022-08-14T01:03:45;21.00;67.90
63283;DHT22;49407;51.388;0.048;2022-08-14T01:06:18;20.90;68.40
63283;DHT22;49407;51.388;0.048;2022-08-14T01:08:47;20.90;69.00
63283;DHT22;49407;51.388;0.048;2022-08-14T01:11:23;20.90;69.60
63283;DHT22;49407;51.388;0.048;2022-08-14T01:13:57;20.90;70.00
63283;DHT22;49407;51.388;0.048;2022-08-14T01:16:30;20.80;70.30
63283;DHT22;49407;51.388;0.048;2022-08-14T01:18:59;20.90;70.40
63283;DHT22;49407;51.388;0.048;2022-08-14T01:21:45;20.80;70.50
63283;DHT22;49407;51.388;0.048;2022-08-14T01:24:19;20.80;71.10
63283;DHT22;49407;51.388;0.048;2022-08-14T01:26:57;20.80;71.20
63283;DHT22;49407;51.388;0.048;2022-08-14T01:29:28;20.70;71.20
63283;DHT22;49407;51.388;0.048;2022-08-14T01:32:17;20.70;72.00
63283;DHT22;49407;51.388;0.048;2022-08-14T01:34:54;20.60;72.30
63283;DHT22;49407;51.388;0.048;2022-08-14T01:37:44;20.60;72.90
63283;DHT22;49407;51.388;0.048;2022-08-14T01:40:24;20.50;73.20
63283;DHT22;49407;51.388;0.048;2022-08-14T01:42:59;20.50;73.70
63283;DHT22;49407;51.388;0.048;2022-08-14T01:45:28;20.50;74.10
63283;DHT22;49407;51.388;0.048;2022-08-14T01:48:06;20.50;74.50
63283;DHT22;49407;51.388;0.048;2022-08-14T01:50:41;20.50;74.50
63283;DHT22;49407;51.388;0.048;2022-08-14T01:53:08;20.40;74.50
63283;DHT22;49407;51.388;0.048;2022-08-14T01:55:36;20.30;74.50
63283;DHT22;49407;51.388;0.048;2022-08-14T02:01:35;20.20;75.30
63283;DHT22;49407;51.388;0.048;2022-08-14T02:04:08;20.20;75.30
63283;DHT22;49407;51.388;0.048;2022-08-14T02:06:55;20.20;76.00
63283;DHT22;49407;51.388;0.048;2022-08-14T02:12:32;20.10;77.30
63283;DHT22;49407;51.388;0.048;2022-08-14T02:15:00;20.10;77.30
63283;DHT22;49407;51.388;0.048;2022-08-14T02:17:28;20.10;77.80
63283;DHT22;49407;51.388;0.048;2022-08-14T02:19:56;20.10;78.20
63283;DHT22;49407;51.388;0.048;2022-08-14T02:22:24;20.00;78.60
63283;DHT22;49407;51.388;0.048;2022-08-14T02:24:59;20.00;79.00
63283;DHT22;49407;51.388;0.048;2022-08-14T02:27:27;20.00;79.70
63283;DHT22;49407;51.388;0.048;2022-08-14T02:30:16;20.00;79.50
63283;DHT22;49407;51.388;0.048;2022-08-14T02:32:43;20.00;79.40
63283;DHT22;49407;51.388;0.048;2022-08-14T02:35:12;19.90;79.40
63283;DHT22;49407;51.388;0.048;2022-08-14T02:38:05;19.90;79.40
63283;DHT22;49407;51.388;0.048;2022-08-14T02:40:37;19.80;79.60
63283;DHT22;49407;51.388;0.048;2022-08-14T02:43:06;19.80;79.20
63283;DHT22;49407;51.388;0.048;2022-08-14T02:45:36;19.70;79.30
63283;DHT22;49407;51.388;0.048;2022-08-14T02:48:31;19.70;79.50
63283;DHT22;49407;51.388;0.048;2022-08-14T02:51:22;19.60;79.70
63283;DHT22;49407;51.388;0.048;2022-08-14T02:53:55;19.60;79.30
63283;DHT22;49407;51.388;0.048;2022-08-14T02:56:24;19.50;79.40
63283;DHT22;49407;51.388;0.048;2022-08-14T02:59:14;19.50;79.20
63283;DHT22;49407;51.388;0.048;2022-08-14T03:01:42;19.40;79.00
63283;DHT22;49407;51.388;0.048;2022-08-14T03:04:17;19.30;78.90
63283;DHT22;49407;51.388;0.048;2022-08-14T03:06:47;19.20;78.80
63283;DHT22;49407;51.388;0.048;2022-08-14T03:12:58;19.10;79.00
63283;DHT22;49407;51.388;0.048;2022-08-14T03:15:26;19.10;78.70
63283;DHT22;49407;51.388;0.048;2022-08-14T03:17:53;19.00;78.70
63283;DHT22;49407;51.388;0.048;2022-08-14T03:20:28;18.90;78.70
63283;DHT22;49407;51.388;0.048;2022-08-14T03:22:57;18.90;78.80
63283;DHT22;49407;51.388;0.048;2022-08-14T03:25:31;18.80;78.80
63283;DHT22;49407;51.388;0.048;2022-08-14T03:28:08;18.80;78.80
63283;DHT22;49407;51.388;0.048;2022-08-14T03:30:58;18.70;78.80
63283;DHT22;49407;51.388;0.048;2022-08-14T03:33:26;18.70;78.80
63283;DHT22;49407;51.388;0.048;2022-08-14T03:36:04;18.60;79.00
63283;DHT22;49407;51.388;0.048;2022-08-14T03:38:55;18.60;79.30
63283;DHT22;49407;51.388;0.048;2022-08-14T03:41:42;18.60;79.40
63283;DHT22;49407;51.388;0.048;2022-08-14T03:44:10;18.50;79.80
63283;DHT22;49407;51.388;0.048;2022-08-14T03:46:57;18.50;80.20
63283;DHT22;49407;51.388;0.048;2022-08-14T03:49:25;18.50;80.50
63283;DHT22;49407;51.388;0.048;2022-08-14T03:51:57;18.40;80.70
63283;DHT22;49407;51.388;0.048;2022-08-14T03:54:27;18.40;80.70
63283;DHT22;49407;51.388;0.048;2022-08-14T03:56:54;18.40;80.80
63283;DHT22;49407;51.388;0.048;2022-08-14T03:59:33;18.30;81.00
63283;DHT22;49407;51.388;0.048;2022-08-14T04:02:01;18.30;81.10
63283;DHT22;49407;51.388;0.048;2022-08-14T04:04:51;18.30;81.30
63283;DHT22;49407;51.388;0.048;2022-08-14T04:07:23;18.30;81.30
63283;DHT22;49407;51.388;0.048;2022-08-14T04:09:50;18.20;81.40
63283;DHT22;49407;51.388;0.048;2022-08-14T04:12:18;18.20;81.40
63283;DHT22;49407;51.388;0.048;2022-08-14T04:14:52;18.10;81.30
63283;DHT22;49407;51.388;0.048;2022-08-14T04:17:20;18.00;81.30
63283;DHT22;49407;51.388;0.048;2022-08-14T04:19:48;18.00;81.40
63283;DHT22;49407;51.388;0.048;2022-08-14T04:22:14;18.00;81.30
63283;DHT22;49407;51.388;0.048;2022-08-14T04:24:42;17.90;81.30
63283;DHT22;49407;51.388;0.048;2022-08-14T04:27:15;17.90;81.40
63283;DHT22;49407;51.388;0.048;2022-08-14T04:29:42;17.90;81.60
63283;DHT22;49407;51.388;0.048;2022-08-14T04:32:11;17.90;81.80
63283;DHT22;49407;51.388;0.048;2022-08-14T04:34:59;17.90;81.80
63283;DHT22;49407;51.388;0.048;2022-08-14T04:37:46;17.80;81.80
63283;DHT22;49407;51.388;0.048;2022-08-14T04:40:52;17.80;82.00
63283;DHT22;49407;51.388;0.048;2022-08-14T04:43:38;17.80;81.80
63283;DHT22;49407;51.388;0.048;2022-08-14T04:46:09;17.80;82.10
63283;DHT22;49407;51.388;0.048;2022-08-14T04:48:58;17.70;82.90
63283;DHT22;49407;51.388;0.048;2022-08-14T04:51:27;17.70;83.00
63283;DHT22;49407;51.388;0.048;2022-08-14T04:53:59;17.70;83.30
63283;DHT22;49407;51.388;0.048;2022-08-14T04:56:29;17.80;83.30
63283;DHT22;49407;51.388;0.048;2022-08-14T04:59:04;17.70;83.30
63283;DHT22;49407;51.388;0.048;2022-08-14T05:01:38;17.70;83.40
63283;DHT22;49407;51.388;0.048;2022-08-14T05:04:16;17.70;83.40
63283;DHT22;49407;51.388;0.048;2022-08-14T05:06:50;17.70;83.40
63283;DHT22;49407;51.388;0.048;2022-08-14T05:09:21;17.60;83.40
63283;DHT22;49407;51.388;0.048;2022-08-14T05:11:48;17.60;83.50
63283;DHT22;49407;51.388;0.048;2022-08-14T05:14:18;17.60;83.50
63283;DHT22;49407;51.388;0.048;2022-08-14T05:17:09;17.60;83.60
63283;DHT22;49407;51.388;0.048;2022-08-14T05:19:38;17.60;83.50
63283;DHT22;49407;51.388;0.048;2022-08-14T05:22:25;17.60;83.80
63283;DHT22;49407;51.388;0.048;2022-08-14T05:24:52;17.60;83.80
63283;DHT22;49407;51.388;0.048;2022-08-14T05:27:19;17.70;83.90
63283;DHT22;49407;51.388;0.048;2022-08-14T05:29:53;17.70;83.90
63283;DHT22;49407;51.388;0.048;2022-08-14T05:32:25;17.80;84.00
63283;DHT22;49407;51.388;0.048;2022-08-14T05:34:55;17.90;83.80
63283;DHT22;49407;51.388;0.048;2022-08-14T05:37:27;18.00;83.60
63283;DHT22;49407;51.388;0.048;2022-08-14T05:39:56;18.10;83.60
63283;DHT22;49407;51.388;0.048;2022-08-14T05:42:24;18.20;83.60
63283;DHT22;49407;51.388;0.048;2022-08-14T05:45:05;18.30;83.40
63283;DHT22;49407;51.388;0.048;2022-08-14T05:50:59;18.50;83.40
63283;DHT22;49407;51.388;0.048;2022-08-14T05:53:27;18.60;83.00
63283;DHT22;49407;51.388;0.048;2022-08-14T05:56:00;18.70;83.00
63283;DHT22;49407;51.388;0.048;2022-08-14T05:58:28;18.90;83.10
63283;DHT22;49407;51.388;0.048;2022-08-14T06:01:06;19.00;83.00
63283;DHT22;49407;51.388;0.048;2022-08-14T06:03:35;19.10;83.00
63283;DHT22;49407;51.388;0.048;2022-08-14T06:06:06;19.30;83.10
63283;DHT22;49407;51.388;0.048;2022-08-14T06:08:54;19.40;83.10
63283;DHT22;49407;51.388;0.048;2022-08-14T06:11:21;19.60;83.30
63283;DHT22;49407;51.388;0.048;2022-08-14T06:13:57;19.80;82.90
63283;DHT22;49407;51.388;0.048;2022-08-14T06:16:24;19.90;82.70
63283;DHT22;49407;51.388;0.048;2022-08-14T06:19:11;20.00;82.60
63283;DHT22;49407;51.388;0.048;2022-08-14T06:21:44;20.20;82.60
63283;DHT22;49407;51.388;0.048;2022-08-14T06:24:12;20.40;82.30
63283;DHT22;49407;51.388;0.048;2022-08-14T06:26:45;20.50;82.10
63283;DHT22;49407;51.388;0.048;2022-08-14T06:29:29;20.80;82.00
63283;DHT22;49407;51.388;0.048;2022-08-14T06:31:58;20.90;81.90
63283;DHT22;49407;51.388;0.048;2022-08-14T06:34:45;21.10;81.70
63283;DHT22;49407;51.388;0.048;2022-08-14T06:37:43;21.30;81.50
63283;DHT22;49407;51.388;0.048;2022-08-14T06:40:16;21.50;81.40
63283;DHT22;49407;51.388;0.048;2022-08-14T06:42:58;21.70;81.00
63283;DHT22;49407;51.388;0.048;2022-08-14T06:45:30;21.90;80.70
63283;DHT22;49407;51.388;0.048;2022-08-14T06:47:58;22.10;80.40
63283;DHT22;49407;51.388;0.048;2022-08-14T06:50:28;22.30;80.20
63283;DHT22;49407;51.388;0.048;2022-08-14T06:52:59;22.40;80.00
63283;DHT22;49407;51.388;0.048;2022-08-14T06:55:26;22.60;79.80
63283;DHT22;49407;51.388;0.048;2022-08-14T06:57:56;22.80;79.40
63283;DHT22;49407;51.388;0.048;2022-08-14T07:00:27;22.90;79.20
63283;DHT22;49407;51.388;0.048;2022-08-14T07:02:57;23.10;79.10
63283;DHT22;49407;51.388;0.048;2022-08-14T07:05:43;23.20;79.00
63283;DHT22;49407;51.388;0.048;2022-08-14T07:08:24;23.30;78.70
63283;DHT22;49407;51.388;0.048;2022-08-14T07:11:01;23.50;78.60
63283;DHT22;49407;51.388;0.048;2022-08-14T07:13:31;23.60;78.40
63283;DHT22;49407;51.388;0.048;2022-08-14T07:15:58;23.80;78.30
63283;DHT22;49407;51.388;0.048;2022-08-14T07:18:29;23.90;78.10
63283;DHT22;49407;51.388;0.048;2022-08-14T07:20:58;24.10;77.80
63283;DHT22;49407;51.388;0.048;2022-08-14T07:23:26;24.20;77.40
63283;DHT22;49407;51.388;0.048;2022-08-14T07:25:58;24.40;77.00
63283;DHT22;49407;51.388;0.048;2022-08-14T07:28:29;24.50;76.60
63283;DHT22;49407;51.388;0.048;2022-08-14T07:30:59;24.60;76.40
63283;DHT22;49407;51.388;0.048;2022-08-14T07:33:45;24.70;76.00
63283;DHT22;49407;51.388;0.048;2022-08-14T07:36:17;24.90;75.60
63283;DHT22;49407;51.388;0.048;2022-08-14T07:39:00;25.00;75.10
63283;DHT22;49407;51.388;0.048;2022-08-14T07:41:38;25.20;74.50
63283;DHT22;49407;51.388;0.048;2022-08-14T07:44:08;25.40;74.00
63283;DHT22;49407;51.388;0.048;2022-08-14T07:46:57;25.60;73.60
63283;DHT22;49407;51.388;0.048;2022-08-14T07:49:26;25.70;73.00
63283;DHT22;49407;51.388;0.048;2022-08-14T07:51:54;25.90;72.50
63283;DHT22;49407;51.388;0.048;2022-08-14T07:54:24;26.10;72.10
63283;DHT22;49407;51.388;0.048;2022-08-14T07:56:57;26.20;71.50
63283;DHT22;49407;51.388;0.048;2022-08-14T07:59:27;26.40;71.00
63283;DHT22;49407;51.388;0.048;2022-08-14T08:02:11;26.60;70.60
63283;DHT22;49407;51.388;0.048;2022-08-14T08:04:52;26.70;70.00
63283;DHT22;49407;51.388;0.048;2022-08-14T08:07:44;26.90;69.40
63283;DHT22;49407;51.388;0.048;2022-08-14T08:10:17;27.20;68.80
63283;DHT22;49407;51.388;0.048;2022-08-14T08:13:20;27.30;68.20
63283;DHT22;49407;51.388;0.048;2022-08-14T08:15:52;27.50;67.60
63283;DHT22;49407;51.388;0.048;2022-08-14T08:18:26;27.50;66.90
63283;DHT22;49407;51.388;0.048;2022-08-14T08:20:56;27.60;66.40
63283;DHT22;49407;51.388;0.048;2022-08-14T08:23:26;27.80;66.00
63283;DHT22;49407;51.388;0.048;2022-08-14T08:26:07;27.80;65.50
63283;DHT22;49407;51.388;0.048;2022-08-14T08:28:36;28.00;65.00
63283;DHT22;49407;51.388;0.048;2022-08-14T08:31:07;28.10;64.60
63283;DHT22;49407;51.388;0.048;2022-08-14T08:33:34;28.20;63.90
63283;DHT22;49407;51.388;0.048;2022-08-14T08:36:08;28.30;63.50
63283;DHT22;49407;51.388;0.048;2022-08-14T08:38:38;28.50;63.00
63283;DHT22;49407;51.388;0.048;2022-08-14T08:41:25;28.60;62.50
63283;DHT22;49407;51.388;0.048;2022-08-14T08:44:04;28.60;61.90
63283;DHT22;49407;51.388;0.048;2022-08-14T08:46:43;28.60;61.60
63283;DHT22;49407;51.388;0.048;2022-08-14T08:49:14;28.60;61.50
63283;DHT22;49407;51.388;0.048;2022-08-14T08:51:41;28.70;61.00
63283;DHT22;49407;51.388;0.048;2022-08-14T08:54:11;28.70;60.60
63283;DHT22;49407;51.388;0.048;2022-08-14T08:56:52;28.70;61.00
63283;DHT22;49407;51.388;0.048;2022-08-14T08:59:27;28.70;60.20
63283;DHT22;49407;51.388;0.048;2022-08-14T09:02:02;28.80;59.80
63283;DHT22;49407;51.388;0.048;2022-08-14T09:04:42;29.00;59.20
63283;DHT22;49407;51.388;0.048;2022-08-14T09:07:25;29.20;58.60
63283;DHT22;49407;51.388;0.048;2022-08-14T09:09:53;29.30;57.90
63283;DHT22;49407;51.388;0.048;2022-08-14T09:12:27;29.30;57.90
63283;DHT22;49407;51.388;0.048;2022-08-14T09:15:12;29.40;57.50
63283;DHT22;49407;51.388;0.048;2022-08-14T09:20:50;29.60;56.30
63283;DHT22;49407;51.388;0.048;2022-08-14T09:23:20;29.80;56.20
63283;DHT22;49407;51.388;0.048;2022-08-14T09:26:00;29.90;55.70
63283;DHT22;49407;51.388;0.048;2022-08-14T09:28:49;30.10;55.10
63283;DHT22;49407;51.388;0.048;2022-08-14T09:31:17;30.30;54.60
63283;DHT22;49407;51.388;0.048;2022-08-14T09:43:18;30.90;52.30
63283;DHT22;49407;51.388;0.048;2022-08-14T09:45:48;31.10;51.80
63283;DHT22;49407;51.388;0.048;2022-08-14T09:48:22;31.30;50.90
63283;DHT22;49407;51.388;0.048;2022-08-14T09:50:57;31.50;50.90
63283;DHT22;49407;51.388;0.048;2022-08-14T09:53:39;31.60;50.80
63283;DHT22;49407;51.388;0.048;2022-08-14T09:56:43;31.90;50.50
63283;DHT22;49407;51.388;0.048;2022-08-14T09:59:13;32.10;49.90
63283;DHT22;49407;51.388;0.048;2022-08-14T10:01:43;32.40;49.60
63283;DHT22;49407;51.388;0.048;2022-08-14T10:04:21;32.60;48.80
63283;DHT22;49407;51.388;0.048;2022-08-14T10:07:05;32.80;48.10
63283;DHT22;49407;51.388;0.048;2022-08-14T10:09:48;33.10;47.60
63283;DHT22;49407;51.388;0.048;2022-08-14T10:12:44;33.40;47.20
63283;DHT22;49407;51.388;0.048;2022-08-14T10:15:21;33.60;46.80
63283;DHT22;49407;51.388;0.048;2022-08-14T10:18:10;33.90;46.40
63283;DHT22;49407;51.388;0.048;2022-08-14T10:20:53;34.20;45.80
63283;DHT22;49407;51.388;0.048;2022-08-14T10:23:23;34.40;45.30
63283;DHT22;49407;51.388;0.048;2022-08-14T10:26:13;34.70;44.60
63283;DHT22;49407;51.388;0.048;2022-08-14T10:29:07;34.90;43.70
63283;DHT22;49407;51.388;0.048;2022-08-14T10:31:56;35.10;43.40
63283;DHT22;49407;51.388;0.048;2022-08-14T10:34:31;35.20;42.70
63283;DHT22;49407;51.388;0.048;2022-08-14T10:37:11;35.40;42.60
63283;DHT22;49407;51.388;0.048;2022-08-14T10:39:42;35.60;42.10
63283;DHT22;49407;51.388;0.048;2022-08-14T10:42:43;35.80;41.70
63283;DHT22;49407;51.388;0.048;2022-08-14T10:45:21;36.00;41.30
63283;DHT22;49407;51.388;0.048;2022-08-14T10:47:52;36.10;40.90
63283;DHT22;49407;51.388;0.048;2022-08-14T10:50:41;36.30;40.10
63283;DHT22;49407;51.388;0.048;2022-08-14T10:53:14;36.40;39.30
63283;DHT22;49407;51.388;0.048;2022-08-14T10:55:42;36.60;38.60
63283;DHT22;49407;51.388;0.048;2022-08-14T10:58:11;36.70;38.40
63283;DHT22;49407;51.388;0.048;2022-08-14T11:00:41;36.80;37.70
63283;DHT22;49407;51.388;0.048;2022-08-14T11:03:23;37.00;37.20
63283;DHT22;49407;51.388;0.048;2022-08-14T11:06:17;37.10;36.60
63283;DHT22;49407;51.388;0.048;2022-08-14T11:08:52;37.20;35.30
63283;DHT22;49407;51.388;0.048;2022-08-14T11:11:21;37.40;34.90
63283;DHT22;49407;51.388;0.048;2022-08-14T11:13:55;37.40;35.20
63283;DHT22;49407;51.388;0.048;2022-08-14T11:16:23;37.50;35.30
63283;DHT22;49407;51.388;0.048;2022-08-14T11:18:56;37.60;35.00
63283;DHT22;49407;51.388;0.048;2022-08-14T11:21:25;37.70;34.80
63283;DHT22;49407;51.388;0.048;2022-08-14T11:24:00;37.60;34.80
63283;DHT22;49407;51.388;0.048;2022-08-14T11:26:49;37.50;34.40
63283;DHT22;49407;51.388;0.048;2022-08-14T11:29:20;37.50;33.50
63283;DHT22;49407;51.388;0.048;2022-08-14T11:31:54;37.40;32.50
63283;DHT22;49407;51.388;0.048;2022-08-14T11:34:21;37.20;32.20
63283;DHT22;49407;51.388;0.048;2022-08-14T11:37:10;37.10;31.80
63283;DHT22;49407;51.388;0.048;2022-08-14T11:39:52;37.00;31.70
63283;DHT22;49407;51.388;0.048;2022-08-14T11:42:30;36.90;31.60
63283;DHT22;49407;51.388;0.048;2022-08-14T11:45:12;36.90;31.70
63283;DHT22;49407;51.388;0.048;2022-08-14T11:47:45;36.90;31.40
63283;DHT22;49407;51.388;0.048;2022-08-14T11:50:33;37.00;31.40
63283;DHT22;49407;51.388;0.048;2022-08-14T11:53:05;37.30;30.90
63283;DHT22;49407;51.388;0.048;2022-08-14T11:55:36;37.60;30.20
63283;DHT22;49407;51.388;0.048;2022-08-14T11:58:10;37.80;29.90
63283;DHT22;49407;51.388;0.048;2022-08-14T12:00:52;38.10;29.80
63283;DHT22;49407;51.388;0.048;2022-08-14T12:03:20;38.40;29.80
63283;DHT22;49407;51.388;0.048;2022-08-14T12:06:09;38.80;29.70
63283;DHT22;49407;51.388;0.048;2022-08-14T12:08:58;39.00;29.10
63283;DHT22;49407;51.388;0.048;2022-08-14T12:11:37;39.10;28.80
63283;DHT22;49407;51.388;0.048;2022-08-14T12:14:12;39.40;28.70
63283;DHT22;49407;51.388;0.048;2022-08-14T12:17:02;39.60;28.60
63283;DHT22;49407;51.388;0.048;2022-08-14T12:19:43;40.00;28.40
63283;DHT22;49407;51.388;0.048;2022-08-14T12:22:11;40.50;28.20
63283;DHT22;49407;51.388;0.048;2022-08-14T12:24:51;40.80;28.00
63283;DHT22;49407;51.388;0.048;2022-08-14T12:27:18;41.20;27.90
63283;DHT22;49407;51.388;0.048;2022-08-14T12:29:53;41.40;27.50
63283;DHT22;49407;51.388;0.048;2022-08-14T12:32:21;41.60;27.40
63283;DHT22;49407;51.388;0.048;2022-08-14T12:34:52;41.80;27.40
63283;DHT22;49407;51.388;0.048;2022-08-14T12:37:28;42.00;27.10
63283;DHT22;49407;51.388;0.048;2022-08-14T12:40:08;42.10;26.60
63283;DHT22;49407;51.388;0.048;2022-08-14T12:42:36;42.10;26.40
63283;DHT22;49407;51.388;0.048;2022-08-14T12:45:13;42.00;26.20
63283;DHT22;49407;51.388;0.048;2022-08-14T12:47:43;42.00;26.20
63283;DHT22;49407;51.388;0.048;2022-08-14T12:50:17;42.10;26.10
63283;DHT22;49407;51.388;0.048;2022-08-14T12:52:46;42.20;26.00
63283;DHT22;49407;51.388;0.048;2022-08-14T12:55:37;42.30;25.80
63283;DHT22;49407;51.388;0.048;2022-08-14T12:58:28;42.40;25.70
63283;DHT22;49407;51.388;0.048;2022-08-14T13:01:27;42.60;25.40
63283;DHT22;49407;51.388;0.048;2022-08-14T13:04:09;42.70;25.20
63283;DHT22;49407;51.388;0.048;2022-08-14T13:06:39;42.90;25.30
63283;DHT22;49407;51.388;0.048;2022-08-14T13:09:12;43.10;25.30
63283;DHT22;49407;51.388;0.048;2022-08-14T13:11:42;43.10;25.20
63283;DHT22;49407;51.388;0.048;2022-08-14T13:14:16;43.10;24.90
63283;DHT22;49407;51.388;0.048;2022-08-14T13:16:47;43.10;24.90
63283;DHT22;49407;51.388;0.048;2022-08-14T13:19:16;43.10;24.80
63283;DHT22;49407;51.388;0.048;2022-08-14T13:21:47;43.30;24.80
63283;DHT22;49407;51.388;0.048;2022-08-14T13:24:32;43.40;24.50
63283;DHT22;49407;51.388;0.048;2022-08-14T13:27:00;43.60;24.40
63283;DHT22;49407;51.388;0.048;2022-08-14T13:29:54;43.50;24.30
63283;DHT22;49407;51.388;0.048;2022-08-14T13:32:24;43.70;24.40
63283;DHT22;49407;51.388;0.048;2022-08-14T13:34:52;43.80;24.30
63283;DHT22;49407;51.388;0.048;2022-08-14T13:37:20;43.90;24.20
63283;DHT22;49407;51.388;0.048;2022-08-14T13:39:51;44.20;24.10
63283;DHT22;49407;51.388;0.048;2022-08-14T13:42:25;44.40;23.80
63283;DHT22;49407;51.388;0.048;2022-08-14T13:44:59;44.50;23.70
63283;DHT22;49407;51.388;0.048;2022-08-14T13:47:46;44.60;23.60
63283;DHT22;49407;51.388;0.048;2022-08-14T13:50:16;44.90;23.60
63283;DHT22;49407;51.388;0.048;2022-08-14T13:52:51;45.20;23.40
63283;DHT22;49407;51.388;0.048;2022-08-14T13:55:24;45.60;23.30
63283;DHT22;49407;51.388;0.048;2022-08-14T13:58:13;45.90;23.70
63283;DHT22;49407;51.388;0.048;2022-08-14T14:01:00;46.00;22.90
63283;DHT22;49407;51.388;0.048;2022-08-14T14:03:33;45.90;23.30
63283;DHT22;49407;51.388;0.048;2022-08-14T14:06:01;46.00;22.60
63283;DHT22;49407;51.388;0.048;2022-08-14T14:08:34;46.00;22.70
63283;DHT22;49407;51.388;0.048;2022-08-14T14:11:17;46.10;22.60
63283;DHT22;49407;51.388;0.048;2022-08-14T14:13:54;46.30;22.40
63283;DHT22;49407;51.388;0.048;2022-08-14T14:16:22;46.40;22.20
63283;DHT22;49407;51.388;0.048;2022-08-14T14:18:58;46.50;22.20
63283;DHT22;49407;51.388;0.048;2022-08-14T14:21:36;46.50;22.20
63283;DHT22;49407;51.388;0.048;2022-08-14T14:24:06;46.40;22.20
63283;DHT22;49407;51.388;0.048;2022-08-14T14:26:44;46.40;22.20
63283;DHT22;49407;51.388;0.048;2022-08-14T14:29:14;46.10;22.30
63283;DHT22;49407;51.388;0.048;2022-08-14T14:31:51;45.80;22.30
63283;DHT22;49407;51.388;0.048;2022-08-14T14:34:20;45.60;22.40
63283;DHT22;49407;51.388;0.048;2022-08-14T14:36:57;45.50;22.30
63283;DHT22;49407;51.388;0.048;2022-08-14T14:39:32;45.40;22.40
63283;DHT22;49407;51.388;0.048;2022-08-14T14:42:04;45.20;22.50
63283;DHT22;49407;51.388;0.048;2022-08-14T14:44:38;44.90;22.70
63283;DHT22;49407;51.388;0.048;2022-08-14T14:47:09;44.70;22.90
63283;DHT22;49407;51.388;0.048;2022-08-14T14:49:38;44.40;22.80
63283;DHT22;49407;51.388;0.048;2022-08-14T14:52:17;44.20;23.00
63283;DHT22;49407;51.388;0.048;2022-08-14T14:54:57;43.90;23.30
63283;DHT22;49407;51.388;0.048;2022-08-14T14:57:45;43.80;23.40
63283;DHT22;49407;51.388;0.048;2022-08-14T15:00:20;43.80;23.70
63283;DHT22;49407;51.388;0.048;2022-08-14T15:02:52;43.50;23.50
63283;DHT22;49407;51.388;0.048;2022-08-14T15:05:25;42.90;23.80
63283;DHT22;49407;51.388;0.048;2022-08-14T15:08:15;42.30;23.90
63283;DHT22;49407;51.388;0.048;2022-08-14T15:10:52;41.90;24.10
63283;DHT22;49407;51.388;0.048;2022-08-14T15:13:19;41.30;24.20
63283;DHT22;49407;51.388;0.048;2022-08-14T15:15:47;40.90;24.40
63283;DHT22;49407;51.388;0.048;2022-08-14T15:18:19;40.60;24.70
63283;DHT22;49407;51.388;0.048;2022-08-14T15:21:06;40.50;24.70
63283;DHT22;49407;51.388;0.048;2022-08-14T15:23:33;40.90;24.60
63283;DHT22;49407;51.388;0.048;2022-08-14T15:26:12;41.40;24.30
63283;DHT22;49407;51.388;0.048;2022-08-14T15:29:04;42.00;24.20
63283;DHT22;49407;51.388;0.048;2022-08-14T15:31:33;42.70;24.00
63283;DHT22;49407;51.388;0.048;2022-08-14T15:34:03;43.10;23.80
63283;DHT22;49407;51.388;0.048;2022-08-14T15:36:57;43.30;23.80
63283;DHT22;49407;51.388;0.048;2022-08-14T15:39:24;43.10;23.90
63283;DHT22;49407;51.388;0.048;2022-08-14T15:41:55;42.80;24.10
63283;DHT22;49407;51.388;0.048;2022-08-14T15:44:23;42.40;24.30
63283;DHT22;49407;51.388;0.048;2022-08-14T15:47:00;41.80;24.60
63283;DHT22;49407;51.388;0.048;2022-08-14T15:49:47;41.10;24.90
63283;DHT22;49407;51.388;0.048;2022-08-14T15:52:21;40.40;25.30
63283;DHT22;49407;51.388;0.048;2022-08-14T15:55:03;39.80;25.60
63283;DHT22;49407;51.388;0.048;2022-08-14T15:57:30;39.20;25.90
63283;DHT22;49407;51.388;0.048;2022-08-14T15:59:57;38.60;26.10
63283;DHT22;49407;51.388;0.048;2022-08-14T16:03:03;38.10;26.40
63283;DHT22;49407;51.388;0.048;2022-08-14T16:05:35;37.50;26.70
63283;DHT22;49407;51.388;0.048;2022-08-14T16:08:08;37.10;27.00
63283;DHT22;49407;51.388;0.048;2022-08-14T16:10:56;36.80;27.30
63283;DHT22;49407;51.388;0.048;2022-08-14T16:13:23;36.50;27.60
63283;DHT22;49407;51.388;0.048;2022-08-14T16:16:06;36.20;27.80
63283;DHT22;49407;51.388;0.048;2022-08-14T16:18:54;36.00;28.10
63283;DHT22;49407;51.388;0.048;2022-08-14T16:21:25;35.80;28.40
63283;DHT22;49407;51.388;0.048;2022-08-14T16:23:59;35.60;28.60
63283;DHT22;49407;51.388;0.048;2022-08-14T16:26:26;35.50;28.70
63283;DHT22;49407;51.388;0.048;2022-08-14T16:28:59;35.30;28.80
63283;DHT22;49407;51.388;0.048;2022-08-14T16:31:35;35.20;28.90
63283;DHT22;49407;51.388;0.048;2022-08-14T16:34:03;35.20;29.10
63283;DHT22;49407;51.388;0.048;2022-08-14T16:36:51;35.10;29.20
63283;DHT22;49407;51.388;0.048;2022-08-14T16:39:22;35.00;29.30
63283;DHT22;49407;51.388;0.048;2022-08-14T16:41:50;35.00;29.30
63283;DHT22;49407;51.388;0.048;2022-08-14T16:44:19;35.00;29.50
63283;DHT22;49407;51.388;0.048;2022-08-14T16:47:01;35.00;29.60
63283;DHT22;49407;51.388;0.048;2022-08-14T16:49:30;34.90;29.60